createdAt,value
2019-04-11T00:00:48.604Z,31.77
2019-04-11T00:03:35.585Z,32.07
2019-04-11T00:06:13.343Z,32.14
2019-04-11T00:08:50.559Z,32.38
2019-04-11T00:11:28.620Z,32.30
2019-04-11T00:14:07.456Z,32.63
2019-04-11T00:16:45.631Z,32.34
2019-04-11T00:19:23.228Z,31.90
2019-04-11T00:22:01.550Z,32.44
2019-04-11T00:24:39.560Z,32.82
2019-04-11T00:27:17.605Z,32.25
2019-04-11T00:29:55.493Z,31.94
2019-04-11T00:32:33.807Z,32.21
2019-04-11T00:35:11.248Z,32.98
2019-04-11T00:37:49.528Z,32.96
2019-04-11T00:40:27.025Z,33.13
2019-04-11T00:43:05.371Z,33.49
2019-04-11T00:45:43.576Z,33.39
2019-04-11T00:48:21.777Z,33.79
2019-04-11T00:51:01.350Z,32.67
2019-04-11T00:53:40.374Z,32.51
2019-04-11T00:56:19.935Z,32.40
2019-04-11T00:58:58.695Z,33.02
2019-04-11T01:01:36.751Z,33.43
2019-04-11T01:04:14.179Z,33.33
2019-04-11T01:06:52.229Z,33.47
2019-04-11T01:09:30.579Z,33.60
2019-04-11T01:12:08.437Z,33.20
2019-04-11T01:14:46.906Z,32.97
2019-04-11T01:17:25.299Z,32.92
2019-04-11T01:20:03.007Z,32.89
2019-04-11T01:22:41.010Z,32.68
2019-04-11T01:25:20.107Z,32.32
2019-04-11T01:27:58.461Z,32.16
2019-04-11T01:30:43.129Z,32.19
2019-04-11T01:33:20.746Z,32.26
2019-04-11T01:35:59.570Z,32.30
2019-04-11T01:38:42.019Z,32.19
2019-04-11T01:41:20.520Z,32.27
2019-04-11T01:44:02.190Z,32.63
2019-04-11T01:46:38.831Z,32.44
2019-04-11T01:49:22.592Z,32.43
2019-04-11T01:52:00.174Z,32.81
2019-04-11T01:54:39.756Z,32.74
2019-04-11T01:57:18.058Z,32.36
2019-04-11T01:59:55.659Z,32.49
2019-04-11T02:02:56.997Z,33.35
2019-04-11T02:05:35.041Z,33.43
2019-04-11T02:08:13.698Z,34.08
2019-04-11T02:10:52.911Z,34.50
2019-04-11T02:13:32.154Z,34.05
2019-04-11T02:16:10.583Z,33.71
2019-04-11T02:18:48.513Z,33.01
2019-04-11T02:21:25.874Z,32.96
2019-04-11T02:24:20.621Z,33.08
2019-04-11T02:27:16.897Z,33.25
2019-04-11T02:29:56.743Z,33.16
2019-04-11T02:32:36.963Z,32.91
2019-04-11T02:35:15.491Z,33.24
2019-04-11T02:37:57.081Z,33.43
2019-04-11T02:40:36.804Z,32.86
2019-04-11T02:43:15.903Z,32.94
2019-04-11T02:46:08.821Z,33.94
2019-04-11T02:48:35.322Z,34.06
2019-04-11T02:51:14.598Z,34.15
2019-04-11T02:53:54.295Z,34.60
2019-04-11T02:56:33.427Z,34.41
2019-04-11T02:59:15.389Z,33.47
2019-04-11T03:01:55.870Z,33.20
2019-04-11T03:04:34.757Z,33.79
2019-04-11T03:07:14.056Z,34.16
2019-04-11T03:09:53.397Z,33.25
2019-04-11T03:12:33.347Z,33.38
2019-04-11T03:15:27.171Z,34.29
2019-04-11T03:17:59.517Z,34.34
2019-04-11T03:20:40.875Z,34.01
2019-04-11T03:23:16.472Z,33.86
2019-04-11T03:25:54.345Z,34.37
2019-04-11T03:28:35.325Z,34.68
2019-04-11T03:31:58.954Z,34.11
2019-04-11T03:37:17.267Z,34.07
2019-04-11T03:39:29.279Z,34.80
2019-04-11T03:42:03.958Z,35.69
2019-04-11T03:44:39.451Z,34.48
2019-04-11T03:47:29.148Z,34.96
2019-04-11T03:49:55.829Z,35.55
2019-04-11T03:52:30.612Z,35.05
2019-04-11T03:55:11.135Z,34.34
2019-04-11T03:57:51.805Z,34.38
2019-04-11T04:00:35.422Z,34.75
2019-04-11T04:03:11.219Z,34.22
2019-04-11T04:05:50.462Z,34.00
2019-04-11T04:08:34.240Z,33.93
2019-04-11T04:11:23.184Z,34.71
2019-04-11T04:14:26.245Z,33.78
2019-04-11T04:17:21.383Z,34.03
2019-04-11T04:20:19.400Z,34.08
2019-04-11T04:23:11.893Z,33.84
2019-04-11T04:25:49.459Z,34.38
2019-04-11T04:28:31.774Z,34.40
2019-04-11T04:31:11.472Z,35.29
2019-04-11T04:33:48.956Z,35.16
2019-04-11T04:36:28.511Z,35.46
2019-04-11T04:39:10.536Z,34.95
2019-04-11T04:41:58.226Z,34.48
2019-04-11T04:44:27.617Z,34.18
2019-04-11T04:47:15.310Z,34.54
2019-04-11T04:49:45.976Z,34.58
2019-04-11T04:52:25.219Z,34.65
2019-04-11T04:55:05.565Z,34.52
2019-04-11T04:57:42.978Z,34.73
2019-04-11T05:00:23.384Z,34.87
2019-04-11T05:03:02.189Z,34.89
2019-04-11T05:05:39.949Z,34.42
2019-04-11T05:08:18.558Z,35.35
2019-04-11T05:10:58.553Z,35.29
2019-04-11T05:13:36.706Z,35.51
2019-04-11T05:16:17.812Z,36.79
2019-04-11T05:18:55.201Z,35.07
2019-04-11T05:21:35.177Z,34.97
2019-04-11T05:24:14.513Z,35.97
2019-04-11T05:26:52.340Z,35.08
2019-04-11T05:29:30.483Z,36.61
2019-04-11T05:32:09.708Z,35.86
2019-04-11T05:34:47.236Z,35.41
2019-04-11T05:37:24.468Z,35.99
2019-04-11T05:40:03.113Z,35.74
2019-04-11T05:42:43.215Z,34.88
2019-04-11T05:45:22.642Z,34.47
2019-04-11T05:48:01.122Z,34.52
2019-04-11T05:50:47.123Z,34.57
2019-04-11T05:53:21.432Z,35.46
2019-04-11T05:56:01.581Z,35.09
2019-04-11T05:58:42.120Z,35.42
2019-04-11T06:01:27.356Z,36.03
2019-04-11T06:04:14.213Z,35.95
2019-04-11T06:07:00.130Z,35.58
2019-04-11T06:09:41.531Z,34.89
2019-04-11T06:12:50.496Z,34.61
2019-04-11T06:15:36.245Z,34.50
2019-04-11T06:18:27.023Z,33.84
2019-04-11T06:21:06.057Z,34.06
2019-04-11T06:24:16.213Z,34.80
2019-04-11T06:27:25.487Z,34.47
2019-04-11T06:30:24.713Z,34.71
2019-04-11T06:33:23.172Z,34.84
2019-04-11T06:36:26.641Z,34.81
2019-04-11T06:39:27.779Z,34.27
2019-04-11T06:42:12.895Z,34.69
2019-04-11T06:45:17.662Z,34.37
2019-04-11T06:48:07.384Z,34.83
2019-04-11T06:50:59.682Z,34.81
2019-04-11T06:53:41.962Z,34.97
2019-04-11T06:56:23.705Z,34.83
2019-04-11T06:59:07.982Z,35.01
2019-04-11T07:01:47.765Z,35.41
2019-04-11T07:04:38.273Z,35.75
2019-04-11T07:07:16.415Z,34.83
2019-04-11T07:09:59.867Z,35.22
2019-04-11T07:12:55.940Z,35.15
2019-04-11T07:15:37.690Z,35.65
2019-04-11T07:18:32.871Z,35.67
2019-04-11T07:21:12.305Z,35.60
2019-04-11T07:24:07.504Z,35.66
2019-04-11T07:27:00.726Z,35.35
2019-04-11T07:30:09.548Z,35.22
2019-04-11T07:32:47.764Z,34.79
2019-04-11T07:35:53.589Z,34.76
2019-04-11T07:38:39.284Z,34.88
2019-04-11T07:41:38.914Z,34.65
2019-04-11T07:44:17.582Z,34.73
2019-04-11T07:47:19.125Z,34.79
2019-04-11T07:49:55.649Z,34.89
2019-04-11T07:52:35.882Z,34.54
2019-04-11T07:55:14.209Z,34.98
2019-04-11T07:57:56.490Z,34.75
2019-04-11T08:01:01.497Z,34.93
2019-04-11T08:04:13.165Z,35.01
2019-04-11T08:07:17.976Z,34.76
2019-04-11T08:10:11.413Z,35.09
2019-04-11T08:12:49.904Z,34.93
2019-04-11T08:15:44.330Z,34.86
2019-04-11T08:18:39.312Z,34.36
2019-04-11T08:21:36.092Z,34.77
2019-04-11T08:24:20.504Z,34.93
2019-04-11T08:27:17.644Z,34.49
2019-04-11T08:29:58.271Z,34.43
2019-04-11T08:32:46.389Z,34.28
2019-04-11T08:35:51.975Z,34.48
2019-04-11T08:38:29.919Z,34.58
2019-04-11T08:41:26.025Z,34.61
2019-04-11T08:44:32.658Z,34.85
2019-04-11T08:47:16.275Z,34.96
2019-04-11T08:49:57.029Z,34.86
2019-04-11T08:52:44.509Z,34.90
2019-04-11T08:55:48.588Z,34.90
2019-04-11T08:58:33.095Z,34.88
2019-04-11T09:01:11.628Z,34.67
2019-04-11T09:04:18.544Z,34.64
2019-04-11T09:06:56.781Z,34.84
2019-04-11T09:09:51.518Z,34.92
2019-04-11T09:12:28.960Z,34.68
2019-04-11T09:15:24.495Z,34.54
2019-04-11T09:18:12.534Z,34.71
2019-04-11T09:21:07.724Z,34.90
2019-04-11T09:23:46.374Z,34.91
2019-04-11T09:26:49.692Z,35.31
2019-04-11T09:29:32.322Z,35.22
2019-04-11T09:32:27.025Z,35.35
2019-04-11T09:35:12.304Z,35.16
2019-04-11T09:37:51.695Z,34.91
2019-04-11T09:40:52.041Z,35.09
2019-04-11T09:43:33.914Z,34.73
2019-04-11T09:46:30.584Z,35.12
2019-04-11T09:49:39.606Z,34.17
2019-04-11T09:52:36.733Z,34.37
2019-04-11T09:55:37.431Z,34.58
2019-04-11T09:58:27.396Z,34.73
2019-04-11T10:01:21.886Z,34.35
2019-04-11T10:04:01.543Z,34.46
2019-04-11T10:06:57.093Z,34.20
2019-04-11T10:10:00.176Z,34.56
2019-04-11T10:13:02.669Z,34.41
2019-04-11T10:15:51.588Z,34.22
2019-04-11T10:18:47.944Z,34.49
2019-04-11T10:21:25.936Z,34.66
2019-04-11T10:24:20.890Z,34.80
2019-04-11T10:27:08.817Z,34.65
2019-04-11T10:30:04.541Z,34.32
2019-04-11T10:32:47.611Z,34.20
2019-04-11T10:35:46.209Z,34.09
2019-04-11T10:38:24.582Z,34.20
2019-04-11T10:41:20.870Z,34.36
2019-04-11T10:43:59.391Z,34.43
2019-04-11T10:46:51.541Z,34.35
2019-04-11T10:49:54.657Z,34.26
2019-04-11T10:52:36.210Z,34.10
2019-04-11T10:55:17.703Z,33.77
2019-04-11T10:58:26.992Z,33.60
2019-04-11T11:01:33.794Z,33.72
2019-04-11T11:04:17.888Z,33.56
2019-04-11T11:06:58.709Z,33.69
2019-04-11T11:09:58.682Z,33.42
2019-04-11T11:12:55.827Z,32.72
2019-04-11T11:15:41.909Z,33.22
2019-04-11T11:19:15.782Z,33.53
2019-04-11T11:21:33.290Z,33.56
2019-04-11T11:24:31.784Z,33.41
2019-04-11T11:27:09.599Z,33.43
2019-04-11T11:30:18.828Z,33.22
2019-04-11T11:32:56.593Z,32.64
2019-04-11T11:36:04.594Z,32.74
2019-04-11T11:38:43.997Z,33.06
2019-04-11T11:41:42.746Z,33.17
2019-04-11T11:44:20.619Z,32.82
2019-04-11T11:47:17.432Z,32.69
2019-04-11T11:50:00.512Z,32.86
2019-04-11T11:53:08.222Z,32.70
2019-04-11T11:55:43.247Z,32.54
2019-04-11T11:58:44.191Z,32.56
2019-04-11T12:01:22.321Z,32.57
2019-04-11T12:04:35.439Z,32.57
2019-04-11T12:07:11.125Z,32.47
2019-04-11T12:10:13.456Z,32.47
2019-04-11T12:13:11.610Z,32.56
2019-04-11T12:16:10.066Z,32.59
2019-04-11T12:19:15.956Z,32.38
2019-04-11T12:21:53.626Z,32.48
2019-04-11T12:24:48.302Z,32.48
2019-04-11T12:27:37.145Z,32.27
2019-04-11T12:30:26.610Z,32.64
2019-04-11T12:33:21.548Z,32.69
2019-04-11T12:36:08.037Z,32.31
2019-04-11T12:38:55.468Z,32.36
2019-04-11T12:41:38.863Z,32.23
2019-04-11T12:44:35.048Z,32.12
2019-04-11T12:47:38.740Z,31.84
2019-04-11T12:50:34.131Z,31.93
2019-04-11T12:53:13.205Z,31.77
2019-04-11T12:56:09.699Z,31.99
2019-04-11T12:59:05.501Z,31.79
2019-04-11T13:02:09.964Z,32.07
2019-04-11T13:04:48.879Z,32.02
2019-04-11T13:07:38.535Z,32.07
2019-04-11T13:10:25.608Z,31.87
2019-04-11T13:13:21.333Z,31.93
2019-04-11T13:16:11.509Z,31.85
2019-04-11T13:19:05.070Z,31.99
2019-04-11T13:21:55.101Z,31.69
2019-04-11T13:24:49.122Z,31.75
2019-04-11T13:27:30.382Z,31.87
2019-04-11T13:30:45.229Z,31.73
2019-04-11T13:33:28.401Z,31.67
2019-04-11T13:36:37.267Z,31.86
2019-04-11T13:39:14.588Z,32.03
2019-04-11T13:42:10.772Z,31.48
2019-04-11T13:44:48.714Z,31.64
2019-04-11T13:47:42.955Z,31.62
2019-04-11T13:50:21.373Z,31.66
2019-04-11T13:53:15.934Z,31.38
2019-04-11T13:55:53.137Z,31.66
2019-04-11T13:59:00.609Z,31.42
2019-04-11T14:01:39.715Z,31.38
2019-04-11T14:04:23.875Z,31.19
2019-04-11T14:07:02.705Z,31.36
2019-04-11T14:09:45.945Z,31.52
2019-04-11T14:12:26.149Z,31.47
2019-04-11T14:15:08.938Z,31.16
2019-04-11T14:17:59.254Z,31.20
2019-04-11T14:20:48.832Z,31.54
2019-04-11T14:23:44.460Z,31.56
2019-04-11T14:26:52.538Z,31.50
2019-04-11T14:29:54.047Z,31.83
2019-04-11T14:32:33.153Z,31.51
2019-04-11T14:35:41.399Z,31.23
2019-04-11T14:38:24.315Z,31.39
2019-04-11T14:41:23.138Z,31.61
2019-04-11T14:44:02.660Z,31.76
2019-04-11T14:47:06.870Z,31.51
2019-04-11T14:49:46.214Z,31.84
2019-04-11T14:52:42.281Z,31.91
2019-04-11T14:55:20.750Z,32.10
2019-04-11T14:58:25.040Z,31.87
2019-04-11T15:01:04.384Z,32.03
2019-04-11T15:04:05.976Z,31.82
2019-04-11T15:06:47.212Z,31.83
2019-04-11T15:09:46.505Z,31.76
2019-04-11T15:12:27.624Z,31.98
2019-04-11T15:15:26.608Z,31.92
2019-04-11T15:18:05.501Z,31.92
2019-04-11T15:20:55.485Z,31.90
2019-04-11T15:23:51.976Z,31.78
2019-04-11T15:26:47.814Z,31.85
2019-04-11T15:29:31.114Z,31.87
2019-04-11T15:32:45.299Z,31.96
2019-04-11T15:35:22.637Z,31.83
2019-04-11T15:38:16.850Z,32.03
2019-04-11T15:40:57.781Z,32.04
2019-04-11T15:43:52.418Z,31.88
2019-04-11T15:46:31.829Z,32.12
2019-04-11T15:49:40.079Z,31.99
2019-04-11T15:52:21.011Z,31.49
2019-04-11T15:55:18.175Z,31.30
2019-04-11T15:57:58.169Z,31.57
2019-04-11T16:00:57.594Z,32.01
2019-04-11T16:03:37.877Z,31.55
2019-04-11T16:06:48.904Z,31.47
2019-04-11T16:09:26.447Z,31.77
2019-04-11T16:12:26.819Z,32.24
2019-04-11T16:15:13.605Z,32.02
2019-04-11T16:18:24.050Z,31.56
2019-04-11T16:21:05.774Z,31.69
2019-04-11T16:23:52.315Z,31.60
2019-04-11T16:26:42.744Z,31.60
2019-04-11T16:29:41.622Z,31.52
2019-04-11T16:32:19.873Z,31.69
2019-04-11T16:35:10.698Z,31.88
2019-04-11T16:37:48.889Z,31.90
2019-04-11T16:40:54.121Z,31.60
2019-04-11T16:43:32.313Z,31.68
2019-04-11T16:46:30.958Z,31.70
2019-04-11T16:49:07.625Z,31.93
2019-04-11T16:51:44.992Z,31.67
2019-04-11T16:54:22.378Z,31.91
2019-04-11T16:56:59.828Z,31.95
2019-04-11T16:59:36.798Z,31.51
2019-04-11T17:02:13.847Z,31.38
2019-04-11T17:04:51.343Z,31.36
2019-04-11T17:07:37.353Z,31.41
2019-04-11T17:10:16.492Z,31.44
2019-04-11T17:12:56.026Z,31.63
2019-04-11T17:15:36.476Z,31.60
2019-04-11T17:18:14.187Z,31.32
2019-04-11T17:20:51.836Z,31.48
2019-04-11T17:23:30.338Z,31.44
2019-04-11T17:26:08.034Z,31.47
2019-04-11T17:28:45.341Z,31.33
2019-04-11T17:31:25.717Z,31.42
2019-04-11T17:34:02.518Z,31.55
2019-04-11T17:36:41.963Z,31.32
2019-04-11T17:39:23.315Z,31.25
2019-04-11T17:42:00.502Z,31.06
2019-04-11T17:44:37.910Z,31.37
2019-04-11T17:47:16.571Z,31.66
2019-04-11T17:49:53.272Z,31.37
2019-04-11T17:52:30.368Z,31.12
2019-04-11T17:55:08.058Z,31.32
2019-04-11T17:57:45.724Z,31.68
2019-04-11T18:00:30.791Z,31.55
2019-04-11T18:03:11.776Z,31.38
2019-04-11T18:05:47.114Z,31.31
2019-04-11T18:08:25.154Z,31.40
2019-04-11T18:11:02.348Z,31.36
2019-04-11T18:13:39.706Z,31.19
2019-04-11T18:16:17.422Z,31.29
2019-04-11T18:18:55.418Z,31.28
2019-04-11T18:21:34.862Z,31.35
2019-04-11T18:24:11.113Z,31.20
2019-04-11T18:26:51.749Z,31.40
2019-04-11T18:29:28.687Z,31.57
2019-04-11T18:32:06.583Z,31.54
2019-04-11T18:34:44.738Z,31.32
2019-04-11T18:37:22.452Z,31.25
2019-04-11T18:39:59.233Z,31.31
2019-04-11T18:42:36.814Z,31.51
2019-04-11T18:45:13.791Z,31.51
2019-04-11T18:47:50.824Z,31.40
2019-04-11T18:50:28.931Z,31.68
2019-04-11T18:53:06.187Z,31.60
2019-04-11T18:55:43.705Z,31.40
2019-04-11T18:58:21.233Z,31.10
2019-04-11T19:00:59.495Z,31.21
2019-04-11T19:03:41.355Z,31.46
2019-04-11T19:06:27.485Z,31.36
2019-04-11T19:08:57.568Z,31.37
2019-04-11T19:11:35.079Z,31.46
2019-04-11T19:14:15.773Z,31.45
2019-04-11T19:16:51.785Z,31.50
2019-04-11T19:19:28.801Z,31.12
2019-04-11T19:22:08.503Z,31.33
2019-04-11T19:24:45.158Z,31.57
2019-04-11T19:27:22.259Z,31.60
2019-04-11T19:29:59.302Z,31.32
2019-04-11T19:32:37.502Z,31.56
2019-04-11T19:35:14.998Z,31.89
2019-04-11T19:37:52.265Z,31.99
2019-04-11T19:40:30.576Z,31.73
2019-04-11T19:43:09.578Z,31.43
2019-04-11T19:45:49.811Z,31.40
2019-04-11T19:48:25.800Z,31.63
2019-04-11T19:51:03.453Z,31.60
2019-04-11T19:53:41.690Z,31.43
2019-04-11T19:56:33.741Z,31.44
2019-04-11T19:59:11.239Z,31.52
2019-04-11T20:01:50.826Z,31.43
2019-04-11T20:04:27.620Z,31.45
2019-04-11T20:07:04.739Z,31.37
2019-04-11T20:09:42.021Z,31.26
2019-04-11T20:12:19.616Z,31.28
2019-04-11T20:14:57.207Z,31.34
2019-04-11T20:17:44.045Z,31.17
2019-04-11T20:20:14.527Z,31.40
2019-04-11T20:22:58.852Z,31.26
2019-04-11T20:25:32.086Z,31.08
2019-04-11T20:28:09.367Z,31.34
2019-04-11T20:30:46.870Z,31.77
2019-04-11T20:33:27.316Z,31.96
2019-04-11T20:36:03.334Z,31.88
2019-04-11T20:38:40.221Z,32.21
2019-04-11T20:41:17.199Z,32.38
2019-04-11T20:43:56.881Z,31.94
2019-04-11T20:46:53.280Z,31.70
2019-04-11T20:49:30.406Z,31.66
2019-04-11T20:52:07.111Z,31.86
2019-04-11T20:54:45.382Z,31.90
2019-04-11T20:57:26.274Z,31.54
2019-04-11T21:00:03.746Z,31.82
2019-04-11T21:02:41.343Z,31.56
2019-04-11T21:05:18.821Z,31.34
2019-04-11T21:08:02.555Z,31.07
2019-04-11T21:10:36.905Z,31.11
2019-04-11T21:13:13.999Z,31.55
2019-04-11T21:15:50.823Z,31.80
2019-04-11T21:18:28.808Z,31.98
2019-04-11T21:21:06.162Z,31.74
2019-04-11T21:23:43.903Z,31.71
2019-04-11T21:26:20.802Z,31.24
2019-04-11T21:28:59.638Z,31.45
2019-04-11T21:31:37.187Z,31.18
2019-04-11T21:34:14.843Z,31.18
2019-04-11T21:36:52.469Z,31.03
2019-04-11T21:39:29.785Z,30.92
2019-04-11T21:42:06.990Z,31.13
2019-04-11T21:44:44.009Z,30.96
2019-04-11T21:47:21.175Z,31.24
2019-04-11T21:49:58.170Z,31.14
2019-04-11T21:52:35.279Z,31.30
2019-04-11T21:55:15.198Z,31.32
2019-04-11T21:57:51.920Z,31.12
2019-04-11T22:00:40.839Z,31.31
2019-04-11T22:03:23.990Z,31.47
2019-04-11T22:06:00.092Z,31.39
2019-04-11T22:08:37.819Z,31.18
2019-04-11T22:11:15.271Z,31.28
2019-04-11T22:13:52.188Z,31.52
2019-04-11T22:16:28.983Z,31.52
2019-04-11T22:19:07.410Z,31.56
2019-04-11T22:21:45.999Z,31.41
2019-04-11T22:24:23.914Z,31.72
2019-04-11T22:27:01.315Z,31.59
2019-04-11T22:29:39.461Z,31.98
2019-04-11T22:32:19.826Z,31.89
2019-04-11T22:34:59.212Z,31.76
2019-04-11T22:37:36.428Z,31.75
2019-04-11T22:40:13.830Z,31.81
2019-04-11T22:42:51.057Z,31.72
2019-04-11T22:45:28.533Z,31.33
2019-04-11T22:48:08.501Z,31.50
2019-04-11T22:50:44.976Z,31.70
2019-04-11T22:53:22.342Z,31.76
2019-04-11T22:55:59.256Z,32.02
2019-04-11T22:58:36.388Z,31.87
2019-04-11T23:01:13.980Z,31.29
2019-04-11T23:03:58.983Z,31.44
2019-04-11T23:06:34.728Z,31.50
2019-04-11T23:09:12.592Z,31.34
2019-04-11T23:11:49.489Z,31.32
2019-04-11T23:14:27.000Z,31.41
2019-04-11T23:17:04.286Z,31.13
2019-04-11T23:19:43.920Z,31.68
2019-04-11T23:22:20.803Z,31.15
2019-04-11T23:24:58.622Z,31.36
2019-04-11T23:27:36.077Z,31.77
2019-04-11T23:30:15.906Z,31.68
2019-04-11T23:32:53.090Z,31.74
2019-04-11T23:35:31.571Z,31.76
2019-04-11T23:38:09.098Z,31.68
2019-04-11T23:40:46.508Z,31.60
2019-04-11T23:43:22.886Z,31.70
2019-04-11T23:46:00.570Z,31.99
2019-04-11T23:48:38.002Z,31.95
2019-04-11T23:51:16.016Z,31.46
2019-04-11T23:53:53.244Z,31.57
2019-04-11T23:56:31.346Z,31.44
2019-04-11T23:59:08.373Z,31.58
